sensor_id;sensor_type;location;lat;lon;timestamp;pressure;altitude;pressure_sealevel;temperature;humidity
4598;BME280;62772;48.646;8.906;2023-12-29T00:03:08;96335.25;;;6.64;100.00
4598;BME280;62772;48.646;8.906;2023-12-29T00:08:08;96337.28;;;6.48;100.00
4598;BME280;62772;48.646;8.906;2023-12-29T00:13:08;96326.00;;;6.62;100.00
4598;BME280;62772;48.646;8.906;2023-12-29T00:18:09;96311.88;;;6.42;100.00
4598;BME280;62772;48.646;8.906;2023-12-29T00:23:10;96315.44;;;6.32;100.00
4598;BME280;62772;48.646;8.906;2023-12-29T00:28:10;96331.63;;;6.31;100.00
4598;BME280;62772;48.646;8.906;2023-12-29T00:33:11;96325.09;;;6.47;100.00
4598;BME280;62772;48.646;8.906;2023-12-29T00:38:11;96314.75;;;6.46;100.00
4598;BME280;62772;48.646;8.906;2023-12-29T00:43:12;96318.59;;;6.34;100.00
4598;BME280;62772;48.646;8.906;2023-12-29T00:48:12;96320.31;;;6.25;100.00
4598;BME280;62772;48.646;8.906;2023-12-29T00:53:13;96334.06;;;6.27;100.00
4598;BME280;62772;48.646;8.906;2023-12-29T00:58:13;96332.47;;;6.26;100.00
4598;BME280;62772;48.646;8.906;2023-12-29T01:03:13;96340.00;;;6.19;100.00
4598;BME280;62772;48.646;8.906;2023-12-29T01:08:14;96335.66;;;6.28;100.00
4598;BME280;62772;48.646;8.906;2023-12-29T01:13:15;96346.84;;;6.20;100.00
4598;BME280;62772;48.646;8.906;2023-12-29T01:18:15;96347.09;;;6.24;100.00
4598;BME280;62772;48.646;8.906;2023-12-29T01:23:15;96342.31;;;6.26;100.00
4598;BME280;62772;48.646;8.906;2023-12-29T01:28:17;96340.28;;;6.42;100.00
4598;BME280;62772;48.646;8.906;2023-12-29T01:33:18;96338.59;;;6.51;100.00
4598;BME280;62772;48.646;8.906;2023-12-29T01:38:21;96327.13;;;6.56;100.00
4598;BME280;62772;48.646;8.906;2023-12-29T01:43:22;96340.69;;;6.54;100.00
4598;BME280;62772;48.646;8.906;2023-12-29T01:48:23;96336.50;;;6.48;100.00
4598;BME280;62772;48.646;8.906;2023-12-29T01:53:24;96330.09;;;6.49;100.00
4598;BME280;62772;48.646;8.906;2023-12-29T01:58:25;96336.22;;;6.49;100.00
4598;BME280;62772;48.646;8.906;2023-12-29T02:03:26;96336.50;;;6.48;100.00
4598;BME280;62772;48.646;8.906;2023-12-29T02:08:26;96327.25;;;6.45;100.00
4598;BME280;62772;48.646;8.906;2023-12-29T02:13:27;96324.59;;;6.45;100.00
4598;BME280;62772;48.646;8.906;2023-12-29T02:18:30;96318.38;;;6.55;100.00
4598;BME280;62772;48.646;8.906;2023-12-29T02:23:31;96317.31;;;6.56;100.00
4598;BME280;62772;48.646;8.906;2023-12-29T02:28:33;96314.53;;;6.42;100.00
4598;BME280;62772;48.646;8.906;2023-12-29T02:33:38;96320.69;;;6.38;100.00
4598;BME280;62772;48.646;8.906;2023-12-29T02:38:40;96301.81;;;6.44;100.00
4598;BME280;62772;48.646;8.906;2023-12-29T02:43:41;96296.88;;;6.32;100.00
4598;BME280;62772;48.646;8.906;2023-12-29T02:48:41;96296.03;;;6.37;100.00
4598;BME280;62772;48.646;8.906;2023-12-29T02:53:42;96301.41;;;6.32;100.00
4598;BME280;62772;48.646;8.906;2023-12-29T02:58:42;96286.84;;;6.29;100.00
4598;BME280;62772;48.646;8.906;2023-12-29T03:03:43;96275.25;;;6.20;100.00
4598;BME280;62772;48.646;8.906;2023-12-29T03:08:43;96283.91;;;6.31;100.00
4598;BME280;62772;48.646;8.906;2023-12-29T03:13:44;96271.41;;;6.31;100.00
4598;BME280;62772;48.646;8.906;2023-12-29T03:18:44;96262.84;;;6.40;100.00
4598;BME280;62772;48.646;8.906;2023-12-29T03:23:45;96262.56;;;6.17;100.00
4598;BME280;62772;48.646;8.906;2023-12-29T03:28:45;96258.75;;;6.28;100.00
4598;BME280;62772;48.646;8.906;2023-12-29T03:33:46;96263.38;;;6.17;100.00
4598;BME280;62772;48.646;8.906;2023-12-29T03:38:46;96256.25;;;6.13;100.00
4598;BME280;62772;48.646;8.906;2023-12-29T03:43:47;96236.19;;;6.07;100.00
4598;BME280;62772;48.646;8.906;2023-12-29T03:48:48;96243.34;;;6.06;100.00
4598;BME280;62772;48.646;8.906;2023-12-29T03:53:48;96250.59;;;5.95;100.00
4598;BME280;62772;48.646;8.906;2023-12-29T03:58:49;96246.91;;;5.91;100.00
4598;BME280;62772;48.646;8.906;2023-12-29T04:03:49;96244.47;;;6.00;100.00
4598;BME280;62772;48.646;8.906;2023-12-29T04:08:50;96239.84;;;6.11;100.00
4598;BME280;62772;48.646;8.906;2023-12-29T04:13:50;96244.00;;;6.17;100.00
4598;BME280;62772;48.646;8.906;2023-12-29T04:18:51;96234.75;;;6.14;100.00
4598;BME280;62772;48.646;8.906;2023-12-29T04:23:51;96246.28;;;6.05;100.00
4598;BME280;62772;48.646;8.906;2023-12-29T04:28:52;96248.13;;;6.28;100.00
4598;BME280;62772;48.646;8.906;2023-12-29T04:33:52;96233.19;;;6.13;100.00
4598;BME280;62772;48.646;8.906;2023-12-29T04:38:53;96241.47;;;6.07;100.00
4598;BME280;62772;48.646;8.906;2023-12-29T04:43:56;96241.97;;;6.09;100.00
4598;BME280;62772;48.646;8.906;2023-12-29T04:48:56;96228.22;;;6.07;100.00
4598;BME280;62772;48.646;8.906;2023-12-29T04:53:56;96232.78;;;6.25;100.00
4598;BME280;62772;48.646;8.906;2023-12-29T04:58:57;96234.41;;;6.21;100.00
4598;BME280;62772;48.646;8.906;2023-12-29T05:03:57;96238.25;;;6.34;100.00
4598;BME280;62772;48.646;8.906;2023-12-29T05:08:58;96230.00;;;6.35;100.00
4598;BME280;62772;48.646;8.906;2023-12-29T05:13:58;96235.19;;;6.22;100.00
4598;BME280;62772;48.646;8.906;2023-12-29T05:18:59;96235.38;;;6.30;100.00
4598;BME280;62772;48.646;8.906;2023-12-29T05:23:59;96230.78;;;6.36;100.00
4598;BME280;62772;48.646;8.906;2023-12-29T05:29:00;96232.72;;;6.30;100.00
4598;BME280;62772;48.646;8.906;2023-12-29T05:34:00;96233.28;;;6.27;100.00
4598;BME280;62772;48.646;8.906;2023-12-29T05:39:01;96233.72;;;6.34;100.00
4598;BME280;62772;48.646;8.906;2023-12-29T05:44:01;96247.03;;;6.29;100.00
4598;BME280;62772;48.646;8.906;2023-12-29T05:49:02;96250.59;;;6.44;100.00
4598;BME280;62772;48.646;8.906;2023-12-29T05:54:02;96249.81;;;6.43;100.00
4598;BME280;62772;48.646;8.906;2023-12-29T05:59:03;96249.53;;;6.45;100.00
4598;BME280;62772;48.646;8.906;2023-12-29T06:04:04;96254.94;;;6.59;100.00
4598;BME280;62772;48.646;8.906;2023-12-29T06:09:04;96266.28;;;6.40;100.00
4598;BME280;62772;48.646;8.906;2023-12-29T06:14:04;96257.75;;;6.43;100.00
4598;BME280;62772;48.646;8.906;2023-12-29T06:19:05;96265.94;;;6.47;100.00
4598;BME280;62772;48.646;8.906;2023-12-29T06:24:05;96264.19;;;6.37;100.00
4598;BME280;62772;48.646;8.906;2023-12-29T06:29:06;96247.66;;;6.45;100.00
4598;BME280;62772;48.646;8.906;2023-12-29T06:34:06;96246.59;;;6.46;100.00
4598;BME280;62772;48.646;8.906;2023-12-29T06:39:07;96244.16;;;6.50;100.00
4598;BME280;62772;48.646;8.906;2023-12-29T06:44:07;96250.59;;;6.44;100.00
4598;BME280;62772;48.646;8.906;2023-12-29T06:49:08;96241.72;;;6.53;100.00
4598;BME280;62772;48.646;8.906;2023-12-29T06:54:09;96241.28;;;6.46;100.00
4598;BME280;62772;48.646;8.906;2023-12-29T06:59:09;96236.94;;;6.56;100.00
4598;BME280;62772;48.646;8.906;2023-12-29T07:04:10;96242.69;;;6.39;100.00
4598;BME280;62772;48.646;8.906;2023-12-29T07:09:10;96250.44;;;6.35;100.00
4598;BME280;62772;48.646;8.906;2023-12-29T07:14:11;96237.19;;;6.35;100.00
4598;BME280;62772;48.646;8.906;2023-12-29T07:19:11;96238.69;;;6.41;100.00
4598;BME280;62772;48.646;8.906;2023-12-29T07:24:11;96238.34;;;6.48;100.00
4598;BME280;62772;48.646;8.906;2023-12-29T07:29:12;96238.91;;;6.45;100.00
4598;BME280;62772;48.646;8.906;2023-12-29T07:34:13;96245.28;;;6.44;100.00
4598;BME280;62772;48.646;8.906;2023-12-29T07:39:14;96245.00;;;6.45;100.00
4598;BME280;62772;48.646;8.906;2023-12-29T07:44:14;96237.38;;;6.39;100.00
4598;BME280;62772;48.646;8.906;2023-12-29T07:49:15;96242.25;;;6.31;100.00
4598;BME280;62772;48.646;8.906;2023-12-29T07:54:15;96233.44;;;6.36;100.00
4598;BME280;62772;48.646;8.906;2023-12-29T07:59:16;96250.72;;;6.33;100.00
4598;BME280;62772;48.646;8.906;2023-12-29T08:04:16;96252.00;;;6.60;100.00
4598;BME280;62772;48.646;8.906;2023-12-29T08:09:17;96247.00;;;6.53;100.00
4598;BME280;62772;48.646;8.906;2023-12-29T08:14:17;96253.16;;;6.49;100.00
4598;BME280;62772;48.646;8.906;2023-12-29T08:19:18;96261.13;;;6.49;100.00
4598;BME280;62772;48.646;8.906;2023-12-29T08:24:18;96263.22;;;6.52;100.00
4598;BME280;62772;48.646;8.906;2023-12-29T08:29:20;96262.09;;;6.58;100.00
4598;BME280;62772;48.646;8.906;2023-12-29T08:34:21;96251.56;;;6.72;100.00
4598;BME280;62772;48.646;8.906;2023-12-29T08:39:22;96251.63;;;6.67;100.00
4598;BME280;62772;48.646;8.906;2023-12-29T08:44:22;96253.56;;;6.80;100.00
4598;BME280;62772;48.646;8.906;2023-12-29T08:49:23;96259.16;;;6.79;100.00
4598;BME280;62772;48.646;8.906;2023-12-29T08:54:24;96253.66;;;6.75;100.00
4598;BME280;62772;48.646;8.906;2023-12-29T08:59:24;96260.75;;;6.80;100.00
4598;BME280;62772;48.646;8.906;2023-12-29T09:04:24;96253.72;;;6.89;100.00
4598;BME280;62772;48.646;8.906;2023-12-29T09:09:25;96259.25;;;6.93;100.00
4598;BME280;62772;48.646;8.906;2023-12-29T09:14:25;96260.59;;;6.90;100.00
4598;BME280;62772;48.646;8.906;2023-12-29T09:19:26;96267.22;;;6.93;100.00
4598;BME280;62772;48.646;8.906;2023-12-29T09:24:26;96271.94;;;6.96;100.00
4598;BME280;62772;48.646;8.906;2023-12-29T09:29:27;96269.41;;;7.04;100.00
4598;BME280;62772;48.646;8.906;2023-12-29T09:34:27;96271.00;;;7.05;100.00
4598;BME280;62772;48.646;8.906;2023-12-29T09:39:28;96279.63;;;7.16;100.00
4598;BME280;62772;48.646;8.906;2023-12-29T09:44:30;96276.69;;;7.18;100.00
4598;BME280;62772;48.646;8.906;2023-12-29T09:49:37;96285.63;;;7.22;100.00
4598;BME280;62772;48.646;8.906;2023-12-29T09:54:39;96283.28;;;7.20;100.00
4598;BME280;62772;48.646;8.906;2023-12-29T09:59:40;96284.78;;;7.26;100.00
4598;BME280;62772;48.646;8.906;2023-12-29T10:04:41;96283.91;;;7.31;100.00
4598;BME280;62772;48.646;8.906;2023-12-29T10:09:42;96270.19;;;7.43;100.00
4598;BME280;62772;48.646;8.906;2023-12-29T10:15:06;96265.47;;;7.40;100.00
4598;BME280;62772;48.646;8.906;2023-12-29T10:20:43;96259.00;;;7.46;100.00
4598;BME280;62772;48.646;8.906;2023-12-29T10:25:45;96257.75;;;7.57;100.00
4598;BME280;62772;48.646;8.906;2023-12-29T10:30:47;96243.47;;;7.67;100.00
4598;BME280;62772;48.646;8.906;2023-12-29T10:36:01;96253.97;;;7.58;100.00
4598;BME280;62772;48.646;8.906;2023-12-29T10:41:11;96231.34;;;7.61;100.00
4598;BME280;62772;48.646;8.906;2023-12-29T10:46:13;96237.34;;;7.67;100.00
4598;BME280;62772;48.646;8.906;2023-12-29T10:51:13;96230.00;;;7.77;100.00
4598;BME280;62772;48.646;8.906;2023-12-29T10:56:17;96223.22;;;7.85;100.00
4598;BME280;62772;48.646;8.906;2023-12-29T11:01:22;96223.25;;;7.99;100.00
4598;BME280;62772;48.646;8.906;2023-12-29T11:06:24;96214.75;;;8.11;100.00
4598;BME280;62772;48.646;8.906;2023-12-29T11:11:24;96200.16;;;8.22;100.00
4598;BME280;62772;48.646;8.906;2023-12-29T11:16:25;96206.59;;;8.21;100.00
4598;BME280;62772;48.646;8.906;2023-12-29T11:21:27;96213.88;;;8.29;100.00
4598;BME280;62772;48.646;8.906;2023-12-29T11:26:28;96212.00;;;8.30;100.00
4598;BME280;62772;48.646;8.906;2023-12-29T11:31:29;96211.59;;;8.36;100.00
4598;BME280;62772;48.646;8.906;2023-12-29T11:36:33;96202.34;;;8.48;100.00
4598;BME280;62772;48.646;8.906;2023-12-29T11:41:43;96195.63;;;8.50;100.00
4598;BME280;62772;48.646;8.906;2023-12-29T11:46:48;96190.31;;;8.50;100.00
4598;BME280;62772;48.646;8.906;2023-12-29T11:51:50;96191.19;;;8.60;100.00
4598;BME280;62772;48.646;8.906;2023-12-29T11:56:53;96187.63;;;8.64;100.00
4598;BME280;62772;48.646;8.906;2023-12-29T12:01:55;96186.13;;;8.72;100.00
4598;BME280;62772;48.646;8.906;2023-12-29T12:06:55;96185.63;;;8.70;100.00
4598;BME280;62772;48.646;8.906;2023-12-29T12:11:56;96181.28;;;8.74;100.00
4598;BME280;62772;48.646;8.906;2023-12-29T12:16:56;96162.94;;;8.73;100.00
4598;BME280;62772;48.646;8.906;2023-12-29T12:21:58;96167.97;;;8.74;100.00
4598;BME280;62772;48.646;8.906;2023-12-29T12:26:59;96159.56;;;8.81;100.00
4598;BME280;62772;48.646;8.906;2023-12-29T12:32:02;96153.31;;;8.85;100.00
4598;BME280;62772;48.646;8.906;2023-12-29T12:37:03;96149.47;;;8.92;100.00
4598;BME280;62772;48.646;8.906;2023-12-29T12:42:04;96145.72;;;8.93;100.00
4598;BME280;62772;48.646;8.906;2023-12-29T12:47:09;96135.41;;;9.00;100.00
4598;BME280;62772;48.646;8.906;2023-12-29T12:52:14;96133.13;;;9.07;100.00
4598;BME280;62772;48.646;8.906;2023-12-29T12:57:18;96136.50;;;9.21;100.00
4598;BME280;62772;48.646;8.906;2023-12-29T13:02:20;96128.94;;;9.15;100.00
4598;BME280;62772;48.646;8.906;2023-12-29T13:07:21;96142.00;;;9.25;100.00
4598;BME280;62772;48.646;8.906;2023-12-29T13:12:22;96137.34;;;9.31;100.00
4598;BME280;62772;48.646;8.906;2023-12-29T13:17:23;96150.34;;;9.32;100.00
4598;BME280;62772;48.646;8.906;2023-12-29T13:22:23;96162.25;;;9.35;100.00
4598;BME280;62772;48.646;8.906;2023-12-29T13:27:24;96164.44;;;9.33;100.00
4598;BME280;62772;48.646;8.906;2023-12-29T13:32:26;96152.75;;;9.42;100.00
4598;BME280;62772;48.646;8.906;2023-12-29T13:37:43;96163.72;;;9.41;100.00
4598;BME280;62772;48.646;8.906;2023-12-29T13:42:47;96173.09;;;9.38;100.00
4598;BME280;62772;48.646;8.906;2023-12-29T13:47:48;96173.69;;;9.35;100.00
4598;BME280;62772;48.646;8.906;2023-12-29T13:52:49;96167.72;;;9.30;100.00
4598;BME280;62772;48.646;8.906;2023-12-29T13:57:50;96167.13;;;9.33;100.00
4598;BME280;62772;48.646;8.906;2023-12-29T14:13:08;96178.44;;;9.38;100.00
4598;BME280;62772;48.646;8.906;2023-12-29T14:23:13;96172.59;;;9.28;100.00
4598;BME280;62772;48.646;8.906;2023-12-29T14:28:19;96176.31;;;9.26;100.00
4598;BME280;62772;48.646;8.906;2023-12-29T14:33:19;96189.78;;;9.21;100.00
4598;BME280;62772;48.646;8.906;2023-12-29T14:38:20;96181.78;;;9.21;100.00
4598;BME280;62772;48.646;8.906;2023-12-29T14:43:21;96188.75;;;9.08;100.00
4598;BME280;62772;48.646;8.906;2023-12-29T14:48:21;96187.47;;;9.06;100.00
4598;BME280;62772;48.646;8.906;2023-12-29T14:53:24;96195.59;;;9.01;100.00
4598;BME280;62772;48.646;8.906;2023-12-29T14:58:26;96197.69;;;8.90;100.00
4598;BME280;62772;48.646;8.906;2023-12-29T15:03:27;96197.84;;;8.71;100.00
4598;BME280;62772;48.646;8.906;2023-12-29T15:08:28;96198.75;;;8.66;100.00
4598;BME280;62772;48.646;8.906;2023-12-29T15:13:34;96196.19;;;8.61;100.00
4598;BME280;62772;48.646;8.906;2023-12-29T15:18:35;96193.53;;;8.61;100.00
4598;BME280;62772;48.646;8.906;2023-12-29T15:23:36;96200.66;;;8.52;100.00
4598;BME280;62772;48.646;8.906;2023-12-29T15:28:37;96203.13;;;8.48;100.00
4598;BME280;62772;48.646;8.906;2023-12-29T15:33:37;96200.38;;;8.12;100.00
4598;BME280;62772;48.646;8.906;2023-12-29T15:38:38;96209.53;;;7.92;100.00
4598;BME280;62772;48.646;8.906;2023-12-29T15:43:39;96206.69;;;7.88;100.00
4598;BME280;62772;48.646;8.906;2023-12-29T15:48:40;96207.47;;;7.89;100.00
4598;BME280;62772;48.646;8.906;2023-12-29T15:53:41;96198.81;;;7.97;100.00
4598;BME280;62772;48.646;8.906;2023-12-29T15:58:41;96194.28;;;8.11;100.00
4598;BME280;62772;48.646;8.906;2023-12-29T16:03:42;96191.22;;;8.04;100.00
4598;BME280;62772;48.646;8.906;2023-12-29T16:08:42;96185.81;;;7.81;100.00
4598;BME280;62772;48.646;8.906;2023-12-29T16:13:43;96196.81;;;7.89;100.00
4598;BME280;62772;48.646;8.906;2023-12-29T16:18:43;96187.97;;;7.93;100.00
4598;BME280;62772;48.646;8.906;2023-12-29T16:23:44;96184.81;;;7.91;100.00
4598;BME280;62772;48.646;8.906;2023-12-29T16:28:45;96184.03;;;7.91;100.00
4598;BME280;62772;48.646;8.906;2023-12-29T16:33:46;96180.38;;;7.87;100.00
4598;BME280;62772;48.646;8.906;2023-12-29T16:38:48;96184.50;;;7.79;100.00
4598;BME280;62772;48.646;8.906;2023-12-29T16:43:49;96188.72;;;7.66;100.00
4598;BME280;62772;48.646;8.906;2023-12-29T16:48:50;96184.88;;;7.44;100.00
4598;BME280;62772;48.646;8.906;2023-12-29T16:53:50;96184.66;;;7.41;100.00
4598;BME280;62772;48.646;8.906;2023-12-29T16:58:50;96185.09;;;7.15;100.00
4598;BME280;62772;48.646;8.906;2023-12-29T17:03:51;96179.09;;;7.23;100.00
4598;BME280;62772;48.646;8.906;2023-12-29T17:08:51;96175.19;;;7.21;100.00
4598;BME280;62772;48.646;8.906;2023-12-29T17:13:52;96171.50;;;7.17;100.00
4598;BME280;62772;48.646;8.906;2023-12-29T17:18:52;96158.13;;;7.08;100.00
4598;BME280;62772;48.646;8.906;2023-12-29T17:23:54;96164.84;;;6.67;100.00
4598;BME280;62772;48.646;8.906;2023-12-29T17:28:54;96155.28;;;6.85;100.00
4598;BME280;62772;48.646;8.906;2023-12-29T17:33:55;96155.53;;;6.51;100.00
4598;BME280;62772;48.646;8.906;2023-12-29T17:38:55;96164.34;;;5.55;100.00
4598;BME280;62772;48.646;8.906;2023-12-29T17:43:56;96174.75;;;5.17;100.00
4598;BME280;62772;48.646;8.906;2023-12-29T17:48:57;96169.72;;;5.20;100.00
4598;BME280;62772;48.646;8.906;2023-12-29T17:53:57;96180.25;;;4.91;100.00
4598;BME280;62772;48.646;8.906;2023-12-29T17:58:59;96173.13;;;5.50;100.00
4598;BME280;62772;48.646;8.906;2023-12-29T18:04:00;96178.56;;;5.88;100.00
4598;BME280;62772;48.646;8.906;2023-12-29T18:09:00;96175.59;;;6.19;100.00
4598;BME280;62772;48.646;8.906;2023-12-29T18:14:01;96173.16;;;6.23;100.00
4598;BME280;62772;48.646;8.906;2023-12-29T18:19:01;96175.53;;;6.00;100.00
4598;BME280;62772;48.646;8.906;2023-12-29T18:24:02;96174.06;;;5.89;100.00
4598;BME280;62772;48.646;8.906;2023-12-29T18:29:02;96173.50;;;5.92;100.00
4598;BME280;62772;48.646;8.906;2023-12-29T18:34:03;96183.28;;;5.91;100.00
4598;BME280;62772;48.646;8.906;2023-12-29T18:39:03;96166.31;;;6.16;100.00
4598;BME280;62772;48.646;8.906;2023-12-29T18:44:04;96167.53;;;6.05;100.00
4598;BME280;62772;48.646;8.906;2023-12-29T18:49:04;96170.00;;;5.96;100.00
4598;BME280;62772;48.646;8.906;2023-12-29T18:54:06;96171.16;;;5.85;100.00
4598;BME280;62772;48.646;8.906;2023-12-29T18:59:07;96167.66;;;5.90;100.00
4598;BME280;62772;48.646;8.906;2023-12-29T19:04:13;96166.66;;;5.86;100.00
4598;BME280;62772;48.646;8.906;2023-12-29T19:09:14;96169.31;;;5.86;100.00
4598;BME280;62772;48.646;8.906;2023-12-29T19:14:14;96168.91;;;5.73;100.00
4598;BME280;62772;48.646;8.906;2023-12-29T19:19:16;96183.06;;;5.88;100.00
4598;BME280;62772;48.646;8.906;2023-12-29T19:24:16;96187.94;;;6.05;100.00
4598;BME280;62772;48.646;8.906;2023-12-29T19:29:17;96189.69;;;6.14;100.00
4598;BME280;62772;48.646;8.906;2023-12-29T19:34:17;96180.63;;;6.15;100.00
4598;BME280;62772;48.646;8.906;2023-12-29T19:39:19;96187.56;;;6.35;100.00
4598;BME280;62772;48.646;8.906;2023-12-29T19:44:19;96188.00;;;6.43;100.00
4598;BME280;62772;48.646;8.906;2023-12-29T19:49:20;96184.63;;;6.37;100.00
4598;BME280;62772;48.646;8.906;2023-12-29T19:54:20;96175.38;;;6.34;100.00
4598;BME280;62772;48.646;8.906;2023-12-29T19:59:21;96169.28;;;6.53;100.00
4598;BME280;62772;48.646;8.906;2023-12-29T20:04:21;96164.75;;;6.34;100.00
4598;BME280;62772;48.646;8.906;2023-12-29T20:09:22;96176.94;;;6.35;100.00
4598;BME280;62772;48.646;8.906;2023-12-29T20:14:22;96173.16;;;6.42;100.00
4598;BME280;62772;48.646;8.906;2023-12-29T20:19:23;96173.38;;;6.45;100.00
4598;BME280;62772;48.646;8.906;2023-12-29T20:24:23;96175.53;;;6.43;100.00
4598;BME280;62772;48.646;8.906;2023-12-29T20:29:24;96170.06;;;6.34;100.00
4598;BME280;62772;48.646;8.906;2023-12-29T20:34:24;96169.28;;;6.34;100.00
4598;BME280;62772;48.646;8.906;2023-12-29T20:39:25;96176.59;;;6.42;100.00
4598;BME280;62772;48.646;8.906;2023-12-29T20:44:25;96170.06;;;6.34;100.00
4598;BME280;62772;48.646;8.906;2023-12-29T20:49:25;96161.19;;;6.25;100.00
4598;BME280;62772;48.646;8.906;2023-12-29T20:54:26;96167.28;;;6.26;100.00
4598;BME280;62772;48.646;8.906;2023-12-29T20:59:26;96172.34;;;6.22;100.00
4598;BME280;62772;48.646;8.906;2023-12-29T21:04:27;96170.31;;;6.14;100.00
4598;BME280;62772;48.646;8.906;2023-12-29T21:09:27;96167.09;;;6.17;100.00
4598;BME280;62772;48.646;8.906;2023-12-29T21:14:28;96169.44;;;6.24;100.00
4598;BME280;62772;48.646;8.906;2023-12-29T21:19:31;96173.84;;;6.09;100.00
4598;BME280;62772;48.646;8.906;2023-12-29T21:24:31;96174.56;;;5.91;100.00
4598;BME280;62772;48.646;8.906;2023-12-29T21:29:32;96181.06;;;6.04;100.00
4598;BME280;62772;48.646;8.906;2023-12-29T21:34:32;96184.22;;;6.06;100.00
4598;BME280;62772;48.646;8.906;2023-12-29T21:39:33;96196.03;;;5.89;100.00
4598;BME280;62772;48.646;8.906;2023-12-29T21:44:34;96195.94;;;5.99;100.00
4598;BME280;62772;48.646;8.906;2023-12-29T21:49:34;96200.22;;;5.95;100.00
4598;BME280;62772;48.646;8.906;2023-12-29T21:54:41;96192.25;;;5.95;100.00
4598;BME280;62772;48.646;8.906;2023-12-29T21:59:42;96196.09;;;5.84;100.00
4598;BME280;62772;48.646;8.906;2023-12-29T22:04:43;96196.44;;;5.77;100.00
4598;BME280;62772;48.646;8.906;2023-12-29T22:09:43;96203.09;;;5.45;100.00
4598;BME280;62772;48.646;8.906;2023-12-29T22:14:44;96193.50;;;5.25;100.00
4598;BME280;62772;48.646;8.906;2023-12-29T22:19:44;96190.00;;;4.96;100.00
4598;BME280;62772;48.646;8.906;2023-12-29T22:24:45;96192.75;;;4.41;100.00
4598;BME280;62772;48.646;8.906;2023-12-29T22:29:46;96190.31;;;4.49;100.00
4598;BME280;62772;48.646;8.906;2023-12-29T22:34:46;96189.41;;;5.04;100.00
4598;BME280;62772;48.646;8.906;2023-12-29T22:39:47;96186.31;;;4.97;100.00
4598;BME280;62772;48.646;8.906;2023-12-29T22:44:47;96172.06;;;5.22;100.00
4598;BME280;62772;48.646;8.906;2023-12-29T22:49:48;96177.66;;;4.86;100.00
4598;BME280;62772;48.646;8.906;2023-12-29T22:54:48;96184.50;;;4.47;100.00
4598;BME280;62772;48.646;8.906;2023-12-29T22:59:49;96179.06;;;4.73;100.00
4598;BME280;62772;48.646;8.906;2023-12-29T23:04:49;96165.88;;;4.63;100.00
4598;BME280;62772;48.646;8.906;2023-12-29T23:09:51;96161.88;;;4.70;100.00
4598;BME280;62772;48.646;8.906;2023-12-29T23:14:51;96170.41;;;4.62;100.00
4598;BME280;62772;48.646;8.906;2023-12-29T23:19:52;96170.53;;;4.81;100.00
4598;BME280;62772;48.646;8.906;2023-12-29T23:24:52;96165.06;;;4.67;100.00
4598;BME280;62772;48.646;8.906;2023-12-29T23:29:53;96165.13;;;4.97;100.00
4598;BME280;62772;48.646;8.906;2023-12-29T23:34:53;96173.19;;;4.81;100.00
4598;BME280;62772;48.646;8.906;2023-12-29T23:39:54;96163.81;;;4.94;100.00
4598;BME280;62772;48.646;8.906;2023-12-29T23:44:54;96169.13;;;4.94;100.00
4598;BME280;62772;48.646;8.906;2023-12-29T23:49:58;96157.63;;;5.09;100.00
4598;BME280;62772;48.646;8.906;2023-12-29T23:54:58;96169.03;;;5.34;100.00
4598;BME280;62772;48.646;8.906;2023-12-29T23:59:59;96167.53;;;5.52;100.00
